Time;durP1;ratioP1;P1;durP2;ratioP2;P2;SDS_P1;SDS_P2;PMS_P1;PMS_P2;Temp;Humidity;BMP_temperature;BMP_pressure;BME280_temperature;BME280_humidity;BME280_pressure;Samples;Min_cycle;Max_cycle;Signal;HPM_P1;HPM_P2
2022/08/18 00:01:50;;;;;;;62.88;22.05;;;;;;;;;;5023350;28;20062;-81
2022/08/18 00:04:18;;;;;;;116.43;25.52;;;;;;;;;;5034211;28;20052;-81
2022/08/18 00:07:03;;;;;;;77.88;22.65;;;;;;;;;;5027034;28;20039;-81
2022/08/18 00:09:30;;;;;;;106.28;25.27;;;;;;;;;;5040511;28;20050;-82
2022/08/18 00:12:00;;;;;;;71.75;21.63;;;;;;;;;;5030648;28;20046;-82
2022/08/18 00:14:27;;;;;;;57.30;21.20;;;;;;;;;;5032493;28;20124;-82
2022/08/18 00:16:54;;;;;;;54.45;21.98;;;;;;;;;;5025229;28;20050;-82
2022/08/18 00:19:23;;;;;;;51.88;19.42;;;;;;;;;;5024936;28;20057;-81
2022/08/18 00:22:12;;;;;;;56.42;20.65;;;;;;;;;;5032293;28;20062;-82
2022/08/18 00:24:41;;;;;;;82.43;23.52;;;;;;;;;;5025803;28;20057;-82
2022/08/18 00:27:16;;;;;;;34.17;18.88;;;;;;;;;;5025160;28;20050;-82
2022/08/18 00:29:43;;;;;;;58.47;21.52;;;;;;;;;;5021419;28;20051;-82
2022/08/18 00:32:12;;;;;;;95.20;23.80;;;;;;;;;;5025590;28;20401;-81
2022/08/18 00:34:39;;;;;;;92.10;23.70;;;;;;;;;;5020724;28;20053;-81
2022/08/18 00:37:07;;;;;;;106.72;25.23;;;;;;;;;;5024400;28;21021;-81
2022/08/18 00:39:34;;;;;;;88.38;24.85;;;;;;;;;;5020958;28;20058;-81
2022/08/18 00:42:28;;;;;;;146.75;28.98;;;;;;;;;;5023966;28;20124;-81
2022/08/18 00:44:59;;;;;;;71.43;23.17;;;;;;;;;;5025905;28;20058;-81
2022/08/18 00:47:28;;;;;;;102.72;24.95;;;;;;;;;;5020372;28;20034;-81
2022/08/18 00:50:14;;;;;;;78.47;23.55;;;;;;;;;;5027135;28;20038;-81
2022/08/18 00:52:45;;;;;;;115.60;26.42;;;;;;;;;;5032290;28;20070;-81
2022/08/18 00:55:13;;;;;;;69.65;22.15;;;;;;;;;;5034211;28;20081;-80
2022/08/18 00:57:42;;;;;;;132.23;27.92;;;;;;;;;;5033330;28;22981;-81
2022/08/18 01:00:13;;;;;;;117.40;26.23;;;;;;;;;;5028256;28;20050;-80
2022/08/18 01:02:46;;;;;;;84.68;22.45;;;;;;;;;;5028593;28;21115;-80
2022/08/18 01:05:17;;;;;;;100.53;24.00;;;;;;;;;;5029944;28;20049;-80
2022/08/18 01:07:46;;;;;;;41.75;19.13;;;;;;;;;;5034208;28;20050;-81
2022/08/18 01:10:17;;;;;;;69.93;22.00;;;;;;;;;;5043030;28;20038;-80
2022/08/18 01:12:55;;;;;;;92.15;22.25;;;;;;;;;;5040277;28;20057;-81
2022/08/18 01:15:23;;;;;;;53.30;19.77;;;;;;;;;;5025226;28;20046;-81
2022/08/18 01:21:49;;;;;;;110.75;22.80;;;;;;;;;;5033016;28;20062;-80
2022/08/18 01:23:49;;;;;;;131.10;23.33;;;;;;;;;;5028965;28;20061;-81
2022/08/18 01:26:17;;;;;;;136.45;24.15;;;;;;;;;;5028336;28;20097;-81
2022/08/18 01:28:46;;;;;;;37.30;17.40;;;;;;;;;;5029504;28;20145;-81
2022/08/18 01:31:28;;;;;;;218.13;27.13;;;;;;;;;;5025038;28;20054;-81
2022/08/18 01:33:56;;;;;;;271.95;23.63;;;;;;;;;;5021132;28;20092;-81
2022/08/18 01:36:23;;;;;;;189.65;18.73;;;;;;;;;;5017680;28;20057;-80
2022/08/18 01:38:52;;;;;;;44.28;10.88;;;;;;;;;;5022809;28;20050;-81
2022/08/18 01:41:20;;;;;;;108.25;14.32;;;;;;;;;;5029673;28;20140;-80
2022/08/18 01:43:57;;;;;;;123.40;15.93;;;;;;;;;;5023837;28;20049;-81
2022/08/18 01:46:25;;;;;;;36.08;12.93;;;;;;;;;;5030171;28;20046;-81
2022/08/18 01:48:52;;;;;;;113.78;18.15;;;;;;;;;;5030404;28;20046;-81
2022/08/18 01:51:20;;;;;;;148.35;17.08;;;;;;;;;;5036242;28;20061;-80
2022/08/18 01:54:07;;;;;;;43.45;13.32;;;;;;;;;;5025257;28;20050;-81
2022/08/18 01:56:35;;;;;;;118.72;20.02;;;;;;;;;;5028207;28;20082;-81
2022/08/18 01:59:05;;;;;;;103.63;20.00;;;;;;;;;;5026167;28;20093;-81
2022/08/18 02:01:32;;;;;;;62.80;18.17;;;;;;;;;;5023221;28;20050;-79
2022/08/18 02:04:05;;;;;;;69.18;19.63;;;;;;;;;;5025355;28;20054;-80
2022/08/18 02:06:54;;;;;;;103.10;17.17;;;;;;;;;;5026066;28;20146;-80
2022/08/18 02:09:22;;;;;;;116.00;20.38;;;;;;;;;;5028540;28;20041;-79
2022/08/18 02:11:50;;;;;;;76.63;19.27;;;;;;;;;;5034904;28;20150;-80
2022/08/18 02:14:22;;;;;;;37.38;17.08;;;;;;;;;;5036955;28;20046;-79
2022/08/18 02:16:55;;;;;;;30.95;14.48;;;;;;;;;;5033080;28;20046;-80
2022/08/18 02:19:32;;;;;;;57.63;18.15;;;;;;;;;;5039434;28;20070;-80
2022/08/18 02:21:59;;;;;;;58.55;17.55;;;;;;;;;;5031368;28;20047;-80
2022/08/18 02:24:26;;;;;;;62.88;17.60;;;;;;;;;;5036643;28;20048;-79
2022/08/18 02:26:53;;;;;;;58.60;17.88;;;;;;;;;;5037259;28;20102;-80
2022/08/18 02:29:20;;;;;;;21.55;12.25;;;;;;;;;;5039055;28;20069;-79
2022/08/18 02:31:48;;;;;;;91.10;21.50;;;;;;;;;;5027527;28;20062;-79
2022/08/18 02:34:16;;;;;;;26.95;15.05;;;;;;;;;;5030732;28;20041;-79
2022/08/18 02:36:43;;;;;;;41.97;15.93;;;;;;;;;;5030440;28;20047;-80
2022/08/18 02:39:11;;;;;;;31.55;17.17;;;;;;;;;;5030958;28;20073;-80
2022/08/18 02:41:38;;;;;;;52.35;18.40;;;;;;;;;;5030211;28;20054;-80
2022/08/18 02:44:07;;;;;;;117.30;17.70;;;;;;;;;;5032814;28;20041;-80
2022/08/18 02:46:35;;;;;;;78.18;14.77;;;;;;;;;;5027462;28;20145;-80
2022/08/18 02:49:02;;;;;;;17.98;12.30;;;;;;;;;;5027544;28;20053;-80
2022/08/18 02:51:30;;;;;;;85.45;19.63;;;;;;;;;;5032825;28;20037;-80
2022/08/18 02:53:58;;;;;;;68.25;18.83;;;;;;;;;;5028611;28;20042;-80
2022/08/18 02:56:28;;;;;;;60.78;17.58;;;;;;;;;;5026050;28;20037;-79
2022/08/18 02:59:11;;;;;;;163.55;25.17;;;;;;;;;;5021599;28;20054;-80
2022/08/18 03:01:41;;;;;;;104.90;21.67;;;;;;;;;;5023870;28;20065;-81
2022/08/18 03:04:09;;;;;;;65.97;18.00;;;;;;;;;;5024112;28;20137;-79
2022/08/18 03:06:38;;;;;;;86.22;21.85;;;;;;;;;;5025215;28;20105;-80
2022/08/18 03:09:06;;;;;;;315.00;29.45;;;;;;;;;;5024530;28;20970;-80
2022/08/18 03:11:34;;;;;;;94.35;21.73;;;;;;;;;;5020577;28;20842;-81
2022/08/18 03:14:01;;;;;;;299.55;31.30;;;;;;;;;;5027096;28;20833;-80
2022/08/18 03:16:31;;;;;;;246.80;29.75;;;;;;;;;;5027753;28;20113;-80
2022/08/18 03:19:02;;;;;;;142.77;23.50;;;;;;;;;;5023240;28;21329;-80
2022/08/18 03:21:34;;;;;;;150.25;27.85;;;;;;;;;;5024066;28;20062;-82
2022/08/18 03:24:02;;;;;;;203.88;30.95;;;;;;;;;;5020466;28;20064;-81
2022/08/18 03:26:39;;;;;;;249.00;33.53;;;;;;;;;;5023648;28;20045;-82
2022/08/18 03:29:06;;;;;;;218.50;31.58;;;;;;;;;;5025223;28;20145;-82
2022/08/18 03:31:34;;;;;;;30.40;15.18;;;;;;;;;;5027707;28;20058;-81
2022/08/18 03:34:01;;;;;;;68.22;21.13;;;;;;;;;;5032423;28;20053;-81
2022/08/18 03:36:30;;;;;;;234.27;31.42;;;;;;;;;;5020402;28;20047;-81
2022/08/18 03:38:59;;;;;;;118.45;26.30;;;;;;;;;;5020661;28;20050;-80
2022/08/18 03:41:27;;;;;;;167.45;26.58;;;;;;;;;;5025625;28;20050;-81
2022/08/18 03:44:14;;;;;;;212.70;30.60;;;;;;;;;;5021200;28;20054;-80
2022/08/18 03:46:43;;;;;;;150.23;24.73;;;;;;;;;;5019563;28;20054;-79
2022/08/18 03:49:11;;;;;;;171.63;27.95;;;;;;;;;;5015048;28;20086;-80
2022/08/18 03:51:42;;;;;;;85.38;23.92;;;;;;;;;;5017943;28;20056;-80
2022/08/18 03:54:12;;;;;;;55.47;22.40;;;;;;;;;;5023405;28;20046;-80
2022/08/18 03:56:40;;;;;;;101.82;27.38;;;;;;;;;;5017399;28;20055;-80
2022/08/18 03:59:12;;;;;;;49.15;22.48;;;;;;;;;;5027325;28;20105;-79
2022/08/18 04:01:41;;;;;;;56.83;18.52;;;;;;;;;;5023992;28;20051;-79
2022/08/18 04:04:11;;;;;;;62.47;17.75;;;;;;;;;;5024403;28;20038;-79
2022/08/18 04:06:43;;;;;;;42.15;16.95;;;;;;;;;;5025359;28;20060;-79
2022/08/18 04:09:12;;;;;;;43.45;16.77;;;;;;;;;;5025393;28;20054;-80
2022/08/18 04:11:44;;;;;;;73.55;19.13;;;;;;;;;;5024091;28;20100;-79
2022/08/18 04:14:12;;;;;;;46.70;15.68;;;;;;;;;;5023499;28;20149;-80
2022/08/18 04:16:40;;;;;;;67.90;17.45;;;;;;;;;;5021188;28;20051;-80
2022/08/18 04:19:08;;;;;;;43.25;16.10;;;;;;;;;;5026053;28;20135;-79
2022/08/18 04:21:38;;;;;;;48.03;16.10;;;;;;;;;;5028065;28;20057;-80
2022/08/18 04:24:07;;;;;;;60.55;16.63;;;;;;;;;;5028777;28;20424;-80
2022/08/18 04:26:35;;;;;;;51.05;16.48;;;;;;;;;;5020222;28;20421;-80
2022/08/18 04:29:04;;;;;;;29.48;14.93;;;;;;;;;;5020149;28;20050;-81
2022/08/18 04:31:31;;;;;;;44.33;18.45;;;;;;;;;;5022131;28;20410;-79
2022/08/18 04:33:59;;;;;;;36.85;17.25;;;;;;;;;;5021563;28;20053;-80
2022/08/18 04:36:27;;;;;;;63.45;18.73;;;;;;;;;;5024295;28;20054;-81
2022/08/18 04:38:54;;;;;;;61.67;19.30;;;;;;;;;;5017527;28;20504;-81
2022/08/18 04:41:26;;;;;;;42.22;17.27;;;;;;;;;;5018884;28;20052;-82
2022/08/18 04:43:54;;;;;;;55.70;18.65;;;;;;;;;;5019639;28;20112;-80
2022/08/18 04:46:21;;;;;;;52.78;18.80;;;;;;;;;;5024750;28;20061;-79
2022/08/18 04:48:51;;;;;;;52.97;21.60;;;;;;;;;;5024473;28;20117;-81
2022/08/18 04:51:19;;;;;;;59.67;22.95;;;;;;;;;;5031422;28;20054;-80
2022/08/18 04:54:06;;;;;;;79.28;21.75;;;;;;;;;;5013678;28;20133;-80
2022/08/18 04:56:36;;;;;;;56.38;21.55;;;;;;;;;;5023832;28;20057;-80
2022/08/18 04:59:09;;;;;;;74.38;24.00;;;;;;;;;;5029193;28;20058;-80
2022/08/18 05:01:41;;;;;;;91.78;23.73;;;;;;;;;;5013945;28;20057;-82
2022/08/18 05:04:09;;;;;;;91.10;23.50;;;;;;;;;;5021623;28;20061;-80
2022/08/18 05:06:36;;;;;;;44.55;20.48;;;;;;;;;;5027834;28;20113;-81
2022/08/18 05:09:06;;;;;;;81.70;22.50;;;;;;;;;;5023834;28;20054;-81
2022/08/18 05:11:34;;;;;;;83.57;21.35;;;;;;;;;;5024198;28;20134;-82
2022/08/18 05:14:04;;;;;;;66.57;21.80;;;;;;;;;;5026227;28;20046;-80
2022/08/18 05:16:35;;;;;;;73.05;22.50;;;;;;;;;;5024982;28;20054;-81
2022/08/18 05:19:15;;;;;;;98.80;24.42;;;;;;;;;;5024269;28;20140;-81
2022/08/18 05:21:45;;;;;;;125.32;25.45;;;;;;;;;;5019794;28;20051;-81
2022/08/18 05:24:17;;;;;;;67.00;22.38;;;;;;;;;;5021590;28;20137;-81
2022/08/18 05:26:45;;;;;;;75.45;22.70;;;;;;;;;;5022782;28;20046;-81
2022/08/18 05:29:13;;;;;;;85.55;23.10;;;;;;;;;;5017133;28;20133;-81
2022/08/18 05:31:45;;;;;;;;;;;;;;;;;;5029176;28;20062;-76
2022/08/18 05:34:12;;;;;;;78.60;23.73;;;;;;;;;;5030220;28;45147;-77
2022/08/18 05:36:48;;;;;;;81.57;24.08;;;;;;;;;;5032282;28;20042;-77
2022/08/18 05:39:18;;;;;;;48.92;22.60;;;;;;;;;;5025572;28;20138;-77
2022/08/18 05:41:48;;;;;;;95.07;25.63;;;;;;;;;;5035754;28;20049;-77
2022/08/18 05:44:18;;;;;;;68.78;22.23;;;;;;;;;;5031094;28;20060;-77
2022/08/18 05:46:51;;;;;;;85.07;23.60;;;;;;;;;;5029346;28;20100;-77
2022/08/18 05:49:20;;;;;;;58.55;21.73;;;;;;;;;;5029082;28;20046;-77
2022/08/18 05:51:52;;;;;;;50.45;20.27;;;;;;;;;;5035723;28;20054;-78
2022/08/18 05:57:13;;;;;;;50.25;19.73;;;;;;;;;;5015108;28;20058;-78
2022/08/18 05:59:43;;;;;;;43.42;18.70;;;;;;;;;;5012448;28;20900;-80
2022/08/18 06:02:26;;;;;;;40.67;18.08;;;;;;;;;;5012235;28;20145;-79
2022/08/18 06:04:56;;;;;;;46.60;17.67;;;;;;;;;;5026300;28;20057;-79
2022/08/18 06:07:40;;;;;;;35.72;16.80;;;;;;;;;;5021839;28;20054;-78
2022/08/18 06:10:08;;;;;;;33.58;15.80;;;;;;;;;;5018761;28;20054;-78
2022/08/18 06:12:37;;;;;;;29.50;15.25;;;;;;;;;;5017019;28;20053;-78
2022/08/18 06:15:12;;;;;;;29.25;15.38;;;;;;;;;;5021252;28;20101;-78
2022/08/18 06:17:45;;;;;;;28.73;15.00;;;;;;;;;;5020179;28;20046;-77
2022/08/18 06:20:17;;;;;;;28.80;15.32;;;;;;;;;;5022798;28;20057;-78
2022/08/18 06:22:55;;;;;;;26.83;13.77;;;;;;;;;;5021842;28;20129;-78
2022/08/18 06:25:28;;;;;;;28.98;13.70;;;;;;;;;;5024325;28;20076;-79
2022/08/18 06:27:57;;;;;;;23.20;13.13;;;;;;;;;;5015672;28;20060;-78
2022/08/18 06:30:31;;;;;;;26.65;14.13;;;;;;;;;;5021256;28;20846;-77
2022/08/18 06:33:10;;;;;;;23.45;12.90;;;;;;;;;;5024898;28;21070;-78
2022/08/18 06:35:40;;;;;;;25.02;12.85;;;;;;;;;;5024437;28;20054;-78
2022/08/18 06:41:02;;;;;;;20.17;12.18;;;;;;;;;;5021418;28;20072;-78
2022/08/18 06:43:31;;;;;;;18.60;11.50;;;;;;;;;;5012958;28;20061;-78
2022/08/18 06:45:59;;;;;;;22.40;11.82;;;;;;;;;;5019044;28;20045;-78
2022/08/18 06:48:50;;;;;;;18.75;11.88;;;;;;;;;;5015786;28;20061;-78
2022/08/18 06:51:19;;;;;;;21.63;11.10;;;;;;;;;;5020600;28;20060;-77
2022/08/18 06:53:59;;;;;;;13.00;9.40;;;;;;;;;;5017779;28;20057;-78
2022/08/18 06:56:36;;;;;;;18.33;11.68;;;;;;;;;;5015107;28;20954;-77
2022/08/18 06:59:22;;;;;;;18.52;10.93;;;;;;;;;;5010840;28;20065;-78
2022/08/18 07:01:52;;;;;;;16.05;10.13;;;;;;;;;;5019919;28;21186;-78
2022/08/18 07:04:35;;;;;;;15.57;9.68;;;;;;;;;;5011099;28;20085;-78
2022/08/18 07:07:38;;;;;;;18.90;10.32;;;;;;;;;;5015981;28;20082;-79
2022/08/18 07:10:15;;;;;;;15.68;8.90;;;;;;;;;;4979464;28;20170;-79
2022/08/18 07:12:42;;;;;;;18.90;8.60;;;;;;;;;;4978095;28;20058;-78
2022/08/18 07:15:12;;;;;;;13.20;8.18;;;;;;;;;;4983550;28;20047;-80
2022/08/18 07:17:41;;;;;;;19.90;9.40;;;;;;;;;;4978970;28;20051;-81
2022/08/18 07:20:10;;;;;;;15.52;8.40;;;;;;;;;;4982010;28;20105;-80
2022/08/18 07:22:58;;;;;;;14.38;8.82;;;;;;;;;;4979537;28;20839;-79
2022/08/18 07:25:31;;;;;;;13.57;8.57;;;;;;;;;;4978771;28;20173;-79
2022/08/18 07:28:00;;;;;;;16.33;8.52;;;;;;;;;;4979208;28;20065;-79
2022/08/18 07:30:30;;;;;;;11.15;8.57;;;;;;;;;;4977700;28;20572;-79
2022/08/18 07:33:15;;;;;;;18.75;9.18;;;;;;;;;;4977091;28;20055;-79
2022/08/18 07:35:45;;;;;;;11.70;8.18;;;;;;;;;;4973576;28;20051;-79
2022/08/18 07:38:16;;;;;;;14.57;8.00;;;;;;;;;;4979978;28;20777;-79
2022/08/18 07:41:13;;;;;;;17.05;7.40;;;;;;;;;;4978600;28;20561;-79
2022/08/18 07:43:52;;;;;;;12.15;7.78;;;;;;;;;;4991926;28;20056;-79
2022/08/18 07:46:22;;;;;;;10.98;6.40;;;;;;;;;;5022895;28;20046;-79
2022/08/18 07:48:49;;;;;;;10.85;6.18;;;;;;;;;;5014281;28;20076;-79
2022/08/18 07:51:22;;;;;;;11.65;6.30;;;;;;;;;;5020140;28;20050;-79
2022/08/18 07:53:53;;;;;;;9.32;6.45;;;;;;;;;;5016978;28;20104;-79
2022/08/18 07:56:31;;;;;;;11.70;5.97;;;;;;;;;;5015258;28;20054;-80
2022/08/18 07:59:21;;;;;;;13.50;7.53;;;;;;;;;;5012794;28;20112;-79
2022/08/18 08:01:54;;;;;;;9.90;6.93;;;;;;;;;;5009424;28;20060;-79
2022/08/18 08:04:22;;;;;;;;;;;;;;;;;;5017279;28;20157;-79
2022/08/18 08:07:02;;;;;;;14.00;7.28;;;;;;;;;;5008364;28;45939;-80
2022/08/18 08:10:08;;;;;;;11.95;6.05;;;;;;;;;;5019314;28;20079;-79
2022/08/18 08:12:42;;;;;;;10.35;6.32;;;;;;;;;;5016418;28;20081;-79
2022/08/18 08:15:16;;;;;;;9.88;6.30;;;;;;;;;;5013095;28;20055;-79
2022/08/18 08:17:52;;;;;;;8.05;6.10;;;;;;;;;;5009326;28;20057;-79
2022/08/18 08:20:26;;;;;;;10.20;5.05;;;;;;;;;;5012426;28;20042;-78
2022/08/18 08:22:59;;;;;;;11.98;5.07;;;;;;;;;;5012789;28;20056;-79
2022/08/18 08:25:45;;;;;;;8.18;5.47;;;;;;;;;;5014530;28;20050;-79
2022/08/18 08:28:22;;;;;;;11.30;4.38;;;;;;;;;;5014898;28;20050;-79
2022/08/18 08:30:58;;;;;;;6.65;5.03;;;;;;;;;;5014386;28;20046;-79
2022/08/18 08:33:55;;;;;;;8.18;5.20;;;;;;;;;;5012586;28;20104;-79
2022/08/18 08:36:29;;;;;;;6.95;4.30;;;;;;;;;;5016762;28;20864;-79
2022/08/18 08:38:59;;;;;;;6.28;4.93;;;;;;;;;;5013410;28;20546;-79
2022/08/18 08:41:27;;;;;;;5.18;3.85;;;;;;;;;;5018540;28;20082;-79
2022/08/18 08:44:07;;;;;;;7.80;4.40;;;;;;;;;;5013190;28;20054;-79
2022/08/18 08:46:40;;;;;;;6.93;4.15;;;;;;;;;;5020182;28;20050;-79
2022/08/18 08:49:17;;;;;;;6.10;3.28;;;;;;;;;;5012250;28;20452;-79
2022/08/18 08:51:49;;;;;;;7.13;3.70;;;;;;;;;;5012043;28;20080;-79
2022/08/18 08:54:22;;;;;;;6.97;3.70;;;;;;;;;;5011360;28;20054;-79
2022/08/18 08:56:50;;;;;;;9.32;3.25;;;;;;;;;;5008581;28;20169;-79
2022/08/18 08:59:20;;;;;;;9.15;3.40;;;;;;;;;;5014898;28;20054;-78
2022/08/18 09:01:48;;;;;;;7.85;3.30;;;;;;;;;;5011273;28;20050;-79
2022/08/18 09:04:24;;;;;;;5.28;3.60;;;;;;;;;;5012178;28;20050;-79
2022/08/18 09:06:58;;;;;;;5.07;3.03;;;;;;;;;;5009076;28;20047;-79
2022/08/18 09:09:28;;;;;;;4.53;2.97;;;;;;;;;;5018927;28;20060;-79
2022/08/18 09:12:13;;;;;;;5.78;3.20;;;;;;;;;;5014684;28;20078;-79
2022/08/18 09:14:44;;;;;;;6.50;3.33;;;;;;;;;;5014600;28;20054;-78
2022/08/18 09:17:12;;;;;;;4.57;3.15;;;;;;;;;;5015406;28;20054;-78
2022/08/18 09:19:58;;;;;;;6.38;3.00;;;;;;;;;;5009358;28;20060;-79
2022/08/18 09:22:25;;;;;;;4.55;2.50;;;;;;;;;;5018444;28;20050;-79
2022/08/18 09:24:54;;;;;;;5.88;2.80;;;;;;;;;;5016031;28;20590;-78
2022/08/18 09:27:42;;;;;;;3.83;2.35;;;;;;;;;;5020381;28;20051;-78
2022/08/18 09:30:39;;;;;;;5.43;3.30;;;;;;;;;;5019607;28;20052;-79
2022/08/18 09:33:11;;;;;;;4.47;2.53;;;;;;;;;;5010895;28;20109;-77
2022/08/18 09:36:08;;;;;;;8.52;3.05;;;;;;;;;;5021594;28;20058;-78
2022/08/18 09:41:32;;;;;;;5.53;3.03;;;;;;;;;;5017890;28;21064;-78
2022/08/18 09:44:08;;;;;;;4.68;3.05;;;;;;;;;;5020433;28;20064;-78
2022/08/18 09:46:54;;;;;;;4.22;2.33;;;;;;;;;;5016582;28;20068;-78
2022/08/18 09:49:22;;;;;;;3.47;2.60;;;;;;;;;;5024398;28;20049;-78
2022/08/18 09:51:50;;;;;;;3.70;2.90;;;;;;;;;;5019278;28;20060;-79
2022/08/18 09:54:19;;;;;;;7.85;2.92;;;;;;;;;;5014413;28;20050;-78
2022/08/18 09:56:48;;;;;;;5.50;2.85;;;;;;;;;;5021124;28;20054;-78
2022/08/18 09:59:32;;;;;;;4.63;3.10;;;;;;;;;;5017219;28;20113;-78
2022/08/18 10:02:05;;;;;;;3.65;2.53;;;;;;;;;;5020537;28;20081;-79
2022/08/18 10:04:50;;;;;;;8.52;3.42;;;;;;;;;;5023331;28;20049;-78
2022/08/18 10:07:19;;;;;;;4.72;2.78;;;;;;;;;;5014628;28;20793;-79
2022/08/18 10:09:46;;;;;;;5.10;3.10;;;;;;;;;;5017252;28;20137;-79
2022/08/18 10:12:13;;;;;;;6.70;3.30;;;;;;;;;;5016834;28;20053;-78
2022/08/18 10:14:47;;;;;;;5.78;3.50;;;;;;;;;;5013075;28;20101;-79
2022/08/18 10:17:34;;;;;;;8.00;3.38;;;;;;;;;;5013865;28;20054;-79
2022/08/18 10:20:24;;;;;;;6.32;3.40;;;;;;;;;;5021092;28;20133;-78
2022/08/18 10:22:53;;;;;;;6.03;3.55;;;;;;;;;;4971271;28;20226;-78
2022/08/18 10:25:45;;;;;;;5.38;3.50;;;;;;;;;;4981007;28;20914;-79
2022/08/18 10:28:33;;;;;;;8.55;3.70;;;;;;;;;;4973440;28;20047;-78
2022/08/18 10:31:04;;;;;;;10.50;3.80;;;;;;;;;;4974651;28;20047;-78
2022/08/18 10:33:55;;;;;;;7.10;3.45;;;;;;;;;;4978454;28;20054;-79
2022/08/18 10:36:37;;;;;;;7.75;3.05;;;;;;;;;;4983971;28;20055;-79
2022/08/18 10:39:06;;;;;;;5.68;3.17;;;;;;;;;;4982431;28;20066;-78
2022/08/18 10:41:35;;;;;;;7.00;3.17;;;;;;;;;;4974169;28;20059;-78
2022/08/18 10:44:07;;;;;;;5.63;3.00;;;;;;;;;;4979486;28;20090;-79
2022/08/18 10:46:55;;;;;;;4.85;2.80;;;;;;;;;;4974627;28;20102;-78
2022/08/18 10:49:25;;;;;;;4.63;2.58;;;;;;;;;;4982267;28;20200;-78
2022/08/18 10:51:59;;;;;;;6.50;2.75;;;;;;;;;;4977931;28;20070;-78
2022/08/18 10:54:39;;;;;;;5.18;2.88;;;;;;;;;;4983064;28;20186;-78
2022/08/18 10:57:28;;;;;;;4.77;2.93;;;;;;;;;;4979554;28;20055;-79
2022/08/18 11:00:02;;;;;;;4.60;2.72;;;;;;;;;;4994762;28;20258;-79
2022/08/18 11:02:53;;;;;;;5.43;2.60;;;;;;;;;;5016678;28;20142;-79
2022/08/18 11:05:41;;;;;;;5.43;2.75;;;;;;;;;;5015133;28;20054;-79
2022/08/18 11:08:13;;;;;;;5.28;3.00;;;;;;;;;;5022060;28;20054;-78
2022/08/18 11:10:47;;;;;;;5.55;2.83;;;;;;;;;;5017527;28;20081;-78
2022/08/18 11:13:37;;;;;;;7.22;3.10;;;;;;;;;;5016627;28;20058;-79
2022/08/18 11:16:17;;;;;;;4.97;3.00;;;;;;;;;;5021054;28;20577;-78
2022/08/18 11:18:44;;;;;;;4.75;3.47;;;;;;;;;;5020372;28;20436;-79
2022/08/18 11:21:33;;;;;;;8.75;3.53;;;;;;;;;;5010592;28;20058;-79
2022/08/18 11:24:23;;;;;;;6.05;2.92;;;;;;;;;;5013893;28;20050;-79
2022/08/18 11:27:01;;;;;;;5.45;3.10;;;;;;;;;;5014151;28;20783;-79
2022/08/18 11:29:31;;;;;;;6.78;3.50;;;;;;;;;;5013708;28;20463;-79
2022/08/18 11:31:59;;;;;;;3.60;2.55;;;;;;;;;;5011888;28;20069;-80
2022/08/18 11:34:34;;;;;;;4.90;2.80;;;;;;;;;;5019724;28;20054;-79
2022/08/18 11:37:04;;;;;;;6.50;2.97;;;;;;;;;;5017429;28;20058;-78
2022/08/18 11:39:35;;;;;;;;;;;;;;;;;;5015805;28;20061;-78
2022/08/18 11:42:03;;;;;;;4.30;2.50;;;;;;;;;;5014438;28;44893;-80
2022/08/18 11:44:32;;;;;;;5.82;3.22;;;;;;;;;;5018692;28;20053;-78
2022/08/18 11:47:14;;;;;;;5.88;2.55;;;;;;;;;;5011927;28;20128;-78
2022/08/18 11:50:17;;;;;;;4.45;2.30;;;;;;;;;;5022727;28;20054;-79
2022/08/18 11:52:49;;;;;;;4.40;2.30;;;;;;;;;;4992503;28;20054;-79
2022/08/18 11:55:33;;;;;;;3.33;2.22;;;;;;;;;;5018861;28;20169;-78
2022/08/18 11:58:04;;;;;;;4.22;2.35;;;;;;;;;;5013219;28;20054;-78
2022/08/18 12:00:54;;;;;;;3.17;2.15;;;;;;;;;;5013781;28;20063;-78
2022/08/18 12:03:36;;;;;;;5.03;2.40;;;;;;;;;;5012162;28;20054;-78
2022/08/18 12:06:14;;;;;;;4.47;2.50;;;;;;;;;;5013988;28;20054;-78
2022/08/18 12:09:05;;;;;;;4.30;2.50;;;;;;;;;;5020722;28;20752;-78
2022/08/18 12:11:34;;;;;;;3.03;2.30;;;;;;;;;;5011334;28;20054;-79
2022/08/18 12:14:06;;;;;;;4.57;2.40;;;;;;;;;;5012982;28;20141;-79
2022/08/18 12:16:54;;;;;;;4.78;2.55;;;;;;;;;;5019909;28;20528;-79
2022/08/18 12:19:22;;;;;;;3.15;2.17;;;;;;;;;;5021173;28;20057;-78
2022/08/18 12:21:50;;;;;;;4.90;2.38;;;;;;;;;;5022967;28;20077;-78
2022/08/18 12:24:25;;;;;;;4.88;2.25;;;;;;;;;;5013640;28;20054;-79
2022/08/18 12:26:57;;;;;;;4.85;2.50;;;;;;;;;;5017684;28;20049;-79
2022/08/18 12:29:27;;;;;;;5.18;2.67;;;;;;;;;;5016071;28;20049;-79
2022/08/18 12:32:09;;;;;;;5.20;2.38;;;;;;;;;;5021223;28;20046;-78
2022/08/18 12:34:56;;;;;;;4.32;2.45;;;;;;;;;;5019670;28;20046;-78
2022/08/18 12:37:33;;;;;;;3.63;2.45;;;;;;;;;;5020543;28;20053;-78
2022/08/18 12:40:20;;;;;;;3.13;2.35;;;;;;;;;;5010924;28;20084;-78
2022/08/18 12:42:49;;;;;;;3.88;2.60;;;;;;;;;;5013915;28;20050;-78
2022/08/18 12:45:16;;;;;;;6.43;2.63;;;;;;;;;;5015089;28;20074;-78
2022/08/18 12:47:43;;;;;;;4.28;2.22;;;;;;;;;;5011296;28;20492;-78
2022/08/18 12:50:11;;;;;;;3.95;2.20;;;;;;;;;;5011476;28;20085;-77
2022/08/18 12:52:38;;;;;;;5.28;2.28;;;;;;;;;;5018908;28;20050;-78
2022/08/18 12:55:10;;;;;;;2.95;1.98;;;;;;;;;;5017327;28;20870;-78
2022/08/18 12:57:57;;;;;;;5.07;1.90;;;;;;;;;;5016851;28;20058;-78
2022/08/18 13:00:24;;;;;;;5.30;2.10;;;;;;;;;;5011517;28;20046;-78
2022/08/18 13:02:55;;;;;;;4.70;2.20;;;;;;;;;;5022910;28;20081;-79
2022/08/18 13:05:23;;;;;;;4.75;2.20;;;;;;;;;;5011858;28;20054;-78
2022/08/18 13:08:00;;;;;;;4.78;2.20;;;;;;;;;;5019489;28;20057;-78
2022/08/18 13:10:30;;;;;;;2.95;2.10;;;;;;;;;;5017008;28;20069;-78
2022/08/18 13:13:14;;;;;;;5.22;2.00;;;;;;;;;;5019466;28;20105;-78
2022/08/18 13:15:41;;;;;;;4.57;2.13;;;;;;;;;;5008535;28;21134;-78
2022/08/18 13:18:24;;;;;;;9.75;2.85;;;;;;;;;;5015750;28;20108;-78
2022/08/18 13:20:58;;;;;;;5.32;2.40;;;;;;;;;;5011720;28;20084;-78
2022/08/18 13:23:29;;;;;;;6.45;2.40;;;;;;;;;;5016621;28;20054;-78
2022/08/18 13:25:57;;;;;;;2.97;2.08;;;;;;;;;;5010828;28;20054;-78
2022/08/18 13:28:29;;;;;;;4.13;2.20;;;;;;;;;;5016497;28;20061;-78
2022/08/18 13:31:00;;;;;;;3.88;2.10;;;;;;;;;;5008319;28;20395;-78
2022/08/18 13:33:27;;;;;;;4.43;2.30;;;;;;;;;;5019436;28;20576;-79
2022/08/18 13:36:14;;;;;;;4.20;2.10;;;;;;;;;;5022639;28;20057;-79
2022/08/18 13:38:42;;;;;;;4.68;1.80;;;;;;;;;;5011640;28;20058;-78
2022/08/18 13:41:11;;;;;;;2.70;1.90;;;;;;;;;;5017217;28;20046;-77
2022/08/18 13:43:45;;;;;;;4.35;2.10;;;;;;;;;;5007934;28;20054;-78
2022/08/18 13:46:17;;;;;;;6.50;2.58;;;;;;;;;;5017300;28;20053;-78
2022/08/18 13:48:50;;;;;;;3.40;2.00;;;;;;;;;;5013675;28;20054;-78
2022/08/18 13:51:23;;;;;;;4.40;2.10;;;;;;;;;;5021488;28;20144;-78
2022/08/18 13:53:51;;;;;;;3.10;2.00;;;;;;;;;;5011090;28;20105;-78
2022/08/18 13:56:38;;;;;;;3.70;2.20;;;;;;;;;;5015246;28;20061;-79
2022/08/18 13:59:06;;;;;;;3.90;1.95;;;;;;;;;;5007507;28;20058;-78
2022/08/18 14:01:35;;;;;;;4.85;2.20;;;;;;;;;;5010479;28;20140;-78
2022/08/18 14:04:17;;;;;;;3.47;2.10;;;;;;;;;;5014895;28;20093;-78
2022/08/18 14:06:46;;;;;;;2.13;1.70;;;;;;;;;;5014649;28;20046;-78
2022/08/18 14:09:24;;;;;;;3.30;2.05;;;;;;;;;;5012877;28;20141;-78
2022/08/18 14:12:04;;;;;;;3.20;2.35;;;;;;;;;;5013729;28;20058;-78
2022/08/18 14:14:32;;;;;;;3.65;2.08;;;;;;;;;;5012362;28;20471;-78
2022/08/18 14:17:00;;;;;;;3.85;2.03;;;;;;;;;;5020819;28;20133;-78
2022/08/18 14:27:49;;;;;;;6.50;2.45;;;;;;;;;;5021974;28;20162;-77
2022/08/18 14:30:23;;;;;;;5.40;2.40;;;;;;;;;;5014789;28;20061;-78
2022/08/18 14:32:52;;;;;;;4.07;2.30;;;;;;;;;;5012736;28;22874;-79
2022/08/18 14:35:21;;;;;;;4.53;2.40;;;;;;;;;;5014659;28;20050;-78
2022/08/18 14:38:01;;;;;;;4.63;2.30;;;;;;;;;;5015150;28;20061;-77
2022/08/18 14:40:28;;;;;;;3.63;2.28;;;;;;;;;;5015596;28;20567;-78
2022/08/18 14:42:57;;;;;;;18.48;5.28;;;;;;;;;;5015337;28;20050;-78
2022/08/18 14:45:27;;;;;;;5.43;2.10;;;;;;;;;;5016897;28;21123;-79
2022/08/18 14:48:02;;;;;;;3.85;2.33;;;;;;;;;;5025734;28;20050;-78
2022/08/18 14:50:33;;;;;;;4.82;2.20;;;;;;;;;;5016097;28;20060;-78
2022/08/18 14:53:01;;;;;;;4.82;2.47;;;;;;;;;;5015222;28;20042;-78
2022/08/18 14:55:28;;;;;;;3.92;2.00;;;;;;;;;;5020615;28;20054;-78
2022/08/18 14:57:57;;;;;;;4.82;2.00;;;;;;;;;;5013859;28;20064;-79
2022/08/18 15:00:27;;;;;;;2.78;1.80;;;;;;;;;;5014924;28;20516;-78
2022/08/18 15:02:56;;;;;;;6.38;2.33;;;;;;;;;;5016047;28;20093;-78
2022/08/18 15:05:31;;;;;;;4.20;2.10;;;;;;;;;;5017611;28;20113;-79
2022/08/18 15:08:02;;;;;;;3.63;2.05;;;;;;;;;;5014756;28;20054;-78
2022/08/18 15:10:30;;;;;;;3.42;1.90;;;;;;;;;;5014946;28;20791;-78
2022/08/18 15:12:59;;;;;;;4.22;2.00;;;;;;;;;;5018937;28;20045;-78
2022/08/18 15:15:26;;;;;;;5.15;2.10;;;;;;;;;;5017305;28;20050;-79
2022/08/18 15:18:14;;;;;;;3.67;2.20;;;;;;;;;;5011947;28;20061;-78
2022/08/18 15:26:46;;;;;;;4.32;2.00;;;;;;;;;;5012172;28;20049;-77
2022/08/18 15:29:18;;;;;;;6.63;2.20;;;;;;;;;;5017163;28;20061;-77
2022/08/18 15:31:54;;;;;;;4.28;2.35;;;;;;;;;;5021084;28;20045;-77